sensor_id;sensor_type;location;lat;lon;timestamp;temperature;humidity
35894;DHT22;21994;48.204;16.516;2022-07-01T00:02:23;22.00;99.90
35894;DHT22;21994;48.204;16.516;2022-07-01T00:04:50;22.00;99.90
35894;DHT22;21994;48.204;16.516;2022-07-01T00:07:16;22.00;99.90
35894;DHT22;21994;48.204;16.516;2022-07-01T00:09:43;21.90;99.90
35894;DHT22;21994;48.204;16.516;2022-07-01T00:12:09;21.90;99.90
35894;DHT22;21994;48.204;16.516;2022-07-01T00:14:35;21.90;99.90
35894;DHT22;21994;48.204;16.516;2022-07-01T00:17:01;21.80;99.90
35894;DHT22;21994;48.204;16.516;2022-07-01T00:19:27;21.80;99.90
35894;DHT22;21994;48.204;16.516;2022-07-01T00:21:53;21.80;99.90
35894;DHT22;21994;48.204;16.516;2022-07-01T00:24:19;21.80;99.90
35894;DHT22;21994;48.204;16.516;2022-07-01T00:26:45;21.70;99.90
35894;DHT22;21994;48.204;16.516;2022-07-01T00:29:11;21.90;99.90
35894;DHT22;21994;48.204;16.516;2022-07-01T00:31:37;22.00;99.90
35894;DHT22;21994;48.204;16.516;2022-07-01T00:34:03;21.90;99.90
35894;DHT22;21994;48.204;16.516;2022-07-01T00:36:29;21.80;99.90
35894;DHT22;21994;48.204;16.516;2022-07-01T00:38:55;21.80;99.90
35894;DHT22;21994;48.204;16.516;2022-07-01T00:41:21;21.80;99.90
35894;DHT22;21994;48.204;16.516;2022-07-01T00:43:47;21.80;99.90
35894;DHT22;21994;48.204;16.516;2022-07-01T00:46:13;21.80;99.90
35894;DHT22;21994;48.204;16.516;2022-07-01T00:48:50;21.80;99.90
35894;DHT22;21994;48.204;16.516;2022-07-01T00:51:18;21.80;99.90
35894;DHT22;21994;48.204;16.516;2022-07-01T00:53:44;21.80;99.90
35894;DHT22;21994;48.204;16.516;2022-07-01T00:56:10;21.60;99.90
35894;DHT22;21994;48.204;16.516;2022-07-01T00:58:36;21.60;99.90
35894;DHT22;21994;48.204;16.516;2022-07-01T01:01:03;21.60;99.90
35894;DHT22;21994;48.204;16.516;2022-07-01T01:03:30;21.60;99.90
35894;DHT22;21994;48.204;16.516;2022-07-01T01:05:57;21.60;99.90
35894;DHT22;21994;48.204;16.516;2022-07-01T01:08:23;21.60;99.90
35894;DHT22;21994;48.204;16.516;2022-07-01T01:10:49;21.60;99.90
35894;DHT22;21994;48.204;16.516;2022-07-01T01:13:15;21.50;99.90
35894;DHT22;21994;48.204;16.516;2022-07-01T01:15:42;21.60;99.90
35894;DHT22;21994;48.204;16.516;2022-07-01T01:18:08;21.60;99.90
35894;DHT22;21994;48.204;16.516;2022-07-01T01:20:37;21.60;99.90
35894;DHT22;21994;48.204;16.516;2022-07-01T01:23:03;21.60;99.90
35894;DHT22;21994;48.204;16.516;2022-07-01T01:25:33;21.60;99.90
35894;DHT22;21994;48.204;16.516;2022-07-01T01:28:00;21.50;99.90
35894;DHT22;21994;48.204;16.516;2022-07-01T01:30:27;21.50;99.90
35894;DHT22;21994;48.204;16.516;2022-07-01T01:32:53;21.60;99.90
35894;DHT22;21994;48.204;16.516;2022-07-01T01:35:21;21.50;99.90
35894;DHT22;21994;48.204;16.516;2022-07-01T01:37:47;21.40;99.90
35894;DHT22;21994;48.204;16.516;2022-07-01T01:40:14;21.40;99.90
35894;DHT22;21994;48.204;16.516;2022-07-01T01:42:42;21.40;99.90
35894;DHT22;21994;48.204;16.516;2022-07-01T01:45:09;21.30;99.90
35894;DHT22;21994;48.204;16.516;2022-07-01T01:47:35;21.30;99.90
35894;DHT22;21994;48.204;16.516;2022-07-01T01:50:01;21.30;99.90
35894;DHT22;21994;48.204;16.516;2022-07-01T01:52:29;21.50;99.90
35894;DHT22;21994;48.204;16.516;2022-07-01T01:54:54;21.50;99.90
35894;DHT22;21994;48.204;16.516;2022-07-01T01:57:20;21.60;99.90
35894;DHT22;21994;48.204;16.516;2022-07-01T01:59:46;21.80;99.90
35894;DHT22;21994;48.204;16.516;2022-07-01T02:02:12;21.90;99.90
35894;DHT22;21994;48.204;16.516;2022-07-01T02:04:38;21.90;99.90
35894;DHT22;21994;48.204;16.516;2022-07-01T02:07:04;21.90;99.90
35894;DHT22;21994;48.204;16.516;2022-07-01T02:09:30;21.90;99.90
35894;DHT22;21994;48.204;16.516;2022-07-01T02:11:56;21.90;99.90
35894;DHT22;21994;48.204;16.516;2022-07-01T02:14:22;21.70;99.90
35894;DHT22;21994;48.204;16.516;2022-07-01T02:16:48;21.60;99.90
35894;DHT22;21994;48.204;16.516;2022-07-01T02:19:14;21.50;99.90
35894;DHT22;21994;48.204;16.516;2022-07-01T02:21:39;21.60;99.90
35894;DHT22;21994;48.204;16.516;2022-07-01T02:24:06;21.60;99.90
35894;DHT22;21994;48.204;16.516;2022-07-01T02:26:32;21.60;99.90
35894;DHT22;21994;48.204;16.516;2022-07-01T02:28:58;21.60;99.90
35894;DHT22;21994;48.204;16.516;2022-07-01T02:31:24;21.60;99.90
35894;DHT22;21994;48.204;16.516;2022-07-01T02:33:59;21.80;99.90
35894;DHT22;21994;48.204;16.516;2022-07-01T02:36:25;21.70;99.90
35894;DHT22;21994;48.204;16.516;2022-07-01T02:38:51;21.70;99.90
35894;DHT22;21994;48.204;16.516;2022-07-01T02:41:17;21.60;99.90
35894;DHT22;21994;48.204;16.516;2022-07-01T02:43:43;21.40;99.90
35894;DHT22;21994;48.204;16.516;2022-07-01T02:46:09;21.40;99.90
35894;DHT22;21994;48.204;16.516;2022-07-01T02:48:41;21.50;99.90
35894;DHT22;21994;48.204;16.516;2022-07-01T02:51:07;21.60;99.90
35894;DHT22;21994;48.204;16.516;2022-07-01T02:53:32;21.60;99.90
35894;DHT22;21994;48.204;16.516;2022-07-01T02:55:58;21.50;99.90
35894;DHT22;21994;48.204;16.516;2022-07-01T02:58:25;21.50;99.90
35894;DHT22;21994;48.204;16.516;2022-07-01T03:00:51;21.50;99.90
35894;DHT22;21994;48.204;16.516;2022-07-01T03:03:18;21.40;99.90
35894;DHT22;21994;48.204;16.516;2022-07-01T03:05:44;21.40;99.90
35894;DHT22;21994;48.204;16.516;2022-07-01T03:08:12;21.40;99.90
35894;DHT22;21994;48.204;16.516;2022-07-01T03:10:38;21.40;99.90
35894;DHT22;21994;48.204;16.516;2022-07-01T03:13:04;21.30;99.90
35894;DHT22;21994;48.204;16.516;2022-07-01T03:15:30;21.50;99.90
35894;DHT22;21994;48.204;16.516;2022-07-01T03:17:56;21.60;99.90
35894;DHT22;21994;48.204;16.516;2022-07-01T03:20:22;21.50;99.90
35894;DHT22;21994;48.204;16.516;2022-07-01T03:22:48;21.40;99.90
35894;DHT22;21994;48.204;16.516;2022-07-01T03:25:15;21.50;99.90
35894;DHT22;21994;48.204;16.516;2022-07-01T03:27:41;21.60;99.90
35894;DHT22;21994;48.204;16.516;2022-07-01T03:30:11;21.60;99.90
35894;DHT22;21994;48.204;16.516;2022-07-01T03:32:39;21.60;99.90
35894;DHT22;21994;48.204;16.516;2022-07-01T03:35:05;21.60;99.90
35894;DHT22;21994;48.204;16.516;2022-07-01T03:37:51;21.60;99.90
35894;DHT22;21994;48.204;16.516;2022-07-01T03:40:17;21.50;99.90
35894;DHT22;21994;48.204;16.516;2022-07-01T03:42:43;21.50;99.90
35894;DHT22;21994;48.204;16.516;2022-07-01T03:45:09;21.50;99.90
35894;DHT22;21994;48.204;16.516;2022-07-01T03:47:36;21.50;99.90
35894;DHT22;21994;48.204;16.516;2022-07-01T03:50:01;21.50;99.90
35894;DHT22;21994;48.204;16.516;2022-07-01T03:52:27;21.50;99.90
35894;DHT22;21994;48.204;16.516;2022-07-01T03:54:53;21.50;99.90
35894;DHT22;21994;48.204;16.516;2022-07-01T03:57:19;21.50;99.90
35894;DHT22;21994;48.204;16.516;2022-07-01T03:59:46;21.40;99.90
35894;DHT22;21994;48.204;16.516;2022-07-01T04:02:12;21.50;99.90
35894;DHT22;21994;48.204;16.516;2022-07-01T04:04:38;21.40;99.90
35894;DHT22;21994;48.204;16.516;2022-07-01T04:07:06;21.40;99.90
35894;DHT22;21994;48.204;16.516;2022-07-01T04:09:32;21.50;99.90
35894;DHT22;21994;48.204;16.516;2022-07-01T04:11:59;21.50;99.90
35894;DHT22;21994;48.204;16.516;2022-07-01T04:14:25;21.40;99.90
35894;DHT22;21994;48.204;16.516;2022-07-01T04:16:51;21.50;99.90
35894;DHT22;21994;48.204;16.516;2022-07-01T04:19:17;21.60;99.90
35894;DHT22;21994;48.204;16.516;2022-07-01T04:21:44;21.60;99.90
35894;DHT22;21994;48.204;16.516;2022-07-01T04:24:28;21.70;99.90
35894;DHT22;21994;48.204;16.516;2022-07-01T04:26:58;21.80;99.90
35894;DHT22;21994;48.204;16.516;2022-07-01T04:29:25;21.80;99.90
35894;DHT22;21994;48.204;16.516;2022-07-01T04:31:51;21.90;99.90
35894;DHT22;21994;48.204;16.516;2022-07-01T04:34:17;22.00;99.90
35894;DHT22;21994;48.204;16.516;2022-07-01T04:36:43;22.00;99.90
35894;DHT22;21994;48.204;16.516;2022-07-01T04:39:09;22.10;99.90
35894;DHT22;21994;48.204;16.516;2022-07-01T04:41:35;22.10;99.90
35894;DHT22;21994;48.204;16.516;2022-07-01T04:44:20;22.20;99.90
35894;DHT22;21994;48.204;16.516;2022-07-01T04:46:46;22.30;99.90
35894;DHT22;21994;48.204;16.516;2022-07-01T04:49:12;22.30;99.90
35894;DHT22;21994;48.204;16.516;2022-07-01T04:51:39;22.40;99.90
35894;DHT22;21994;48.204;16.516;2022-07-01T04:54:05;22.40;99.90
35894;DHT22;21994;48.204;16.516;2022-07-01T04:56:32;22.50;99.90
35894;DHT22;21994;48.204;16.516;2022-07-01T04:58:59;22.60;99.90
35894;DHT22;21994;48.204;16.516;2022-07-01T05:01:26;22.80;99.90
35894;DHT22;21994;48.204;16.516;2022-07-01T05:03:52;22.80;99.90
35894;DHT22;21994;48.204;16.516;2022-07-01T05:06:17;22.90;99.90
35894;DHT22;21994;48.204;16.516;2022-07-01T05:08:43;23.00;99.90
35894;DHT22;21994;48.204;16.516;2022-07-01T05:11:10;23.40;99.90
35894;DHT22;21994;48.204;16.516;2022-07-01T05:13:36;23.50;99.90
35894;DHT22;21994;48.204;16.516;2022-07-01T05:16:02;23.50;99.90
35894;DHT22;21994;48.204;16.516;2022-07-01T05:18:29;23.50;99.90
35894;DHT22;21994;48.204;16.516;2022-07-01T05:21:13;23.50;99.90
35894;DHT22;21994;48.204;16.516;2022-07-01T05:23:58;23.60;99.90
35894;DHT22;21994;48.204;16.516;2022-07-01T05:26:24;23.60;99.90
35894;DHT22;21994;48.204;16.516;2022-07-01T05:28:55;23.70;99.90
35894;DHT22;21994;48.204;16.516;2022-07-01T05:31:21;23.80;99.90
35894;DHT22;21994;48.204;16.516;2022-07-01T05:33:48;24.00;99.90
35894;DHT22;21994;48.204;16.516;2022-07-01T05:36:14;24.10;99.90
35894;DHT22;21994;48.204;16.516;2022-07-01T05:38:41;24.30;99.90
35894;DHT22;21994;48.204;16.516;2022-07-01T05:41:07;24.40;99.90
35894;DHT22;21994;48.204;16.516;2022-07-01T05:43:33;24.60;99.90
35894;DHT22;21994;48.204;16.516;2022-07-01T05:46:00;24.80;99.90
35894;DHT22;21994;48.204;16.516;2022-07-01T05:48:27;24.90;99.90
35894;DHT22;21994;48.204;16.516;2022-07-01T05:50:53;24.90;99.90
35894;DHT22;21994;48.204;16.516;2022-07-01T05:53:19;24.80;99.90
35894;DHT22;21994;48.204;16.516;2022-07-01T05:55:45;24.80;99.90
35894;DHT22;21994;48.204;16.516;2022-07-01T05:58:12;24.70;99.90
35894;DHT22;21994;48.204;16.516;2022-07-01T06:00:41;24.70;99.90
35894;DHT22;21994;48.204;16.516;2022-07-01T06:03:11;24.60;99.90
35894;DHT22;21994;48.204;16.516;2022-07-01T06:05:39;24.80;99.90
35894;DHT22;21994;48.204;16.516;2022-07-01T06:08:07;24.90;99.90
35894;DHT22;21994;48.204;16.516;2022-07-01T06:10:34;24.90;99.90
35894;DHT22;21994;48.204;16.516;2022-07-01T06:13:01;25.00;99.90
35894;DHT22;21994;48.204;16.516;2022-07-01T06:15:28;25.00;99.90
35894;DHT22;21994;48.204;16.516;2022-07-01T06:17:54;25.10;99.90
35894;DHT22;21994;48.204;16.516;2022-07-01T06:20:20;25.20;99.90
35894;DHT22;21994;48.204;16.516;2022-07-01T06:22:46;25.20;99.90
35894;DHT22;21994;48.204;16.516;2022-07-01T06:25:12;25.20;99.90
35894;DHT22;21994;48.204;16.516;2022-07-01T06:27:42;25.20;99.90
35894;DHT22;21994;48.204;16.516;2022-07-01T06:30:10;25.10;99.90
35894;DHT22;21994;48.204;16.516;2022-07-01T06:32:37;25.20;99.90
35894;DHT22;21994;48.204;16.516;2022-07-01T06:35:03;25.20;99.90
35894;DHT22;21994;48.204;16.516;2022-07-01T06:37:31;25.10;99.90
35894;DHT22;21994;48.204;16.516;2022-07-01T06:40:00;25.00;99.90
35894;DHT22;21994;48.204;16.516;2022-07-01T06:42:26;25.00;99.90
35894;DHT22;21994;48.204;16.516;2022-07-01T06:44:52;25.10;99.90
35894;DHT22;21994;48.204;16.516;2022-07-01T06:47:18;25.10;99.90
35894;DHT22;21994;48.204;16.516;2022-07-01T06:49:44;25.10;99.90
35894;DHT22;21994;48.204;16.516;2022-07-01T06:52:10;25.00;99.90
35894;DHT22;21994;48.204;16.516;2022-07-01T06:54:36;25.00;99.90
35894;DHT22;21994;48.204;16.516;2022-07-01T06:57:04;25.10;99.90
35894;DHT22;21994;48.204;16.516;2022-07-01T06:59:30;25.20;99.90
35894;DHT22;21994;48.204;16.516;2022-07-01T07:01:56;25.40;99.90
35894;DHT22;21994;48.204;16.516;2022-07-01T07:04:22;25.60;99.90
35894;DHT22;21994;48.204;16.516;2022-07-01T07:06:48;25.70;99.90
35894;DHT22;21994;48.204;16.516;2022-07-01T07:09:14;25.90;99.90
35894;DHT22;21994;48.204;16.516;2022-07-01T07:11:40;25.90;99.90
35894;DHT22;21994;48.204;16.516;2022-07-01T07:14:05;25.90;99.90
35894;DHT22;21994;48.204;16.516;2022-07-01T07:16:31;25.80;99.90
35894;DHT22;21994;48.204;16.516;2022-07-01T07:18:57;26.00;99.90
35894;DHT22;21994;48.204;16.516;2022-07-01T07:21:23;26.20;99.90
35894;DHT22;21994;48.204;16.516;2022-07-01T07:23:49;26.40;99.90
35894;DHT22;21994;48.204;16.516;2022-07-01T07:26:15;26.50;99.90
35894;DHT22;21994;48.204;16.516;2022-07-01T07:28:41;26.80;99.90
35894;DHT22;21994;48.204;16.516;2022-07-01T07:31:07;27.10;99.90
35894;DHT22;21994;48.204;16.516;2022-07-01T07:33:33;27.10;99.90
35894;DHT22;21994;48.204;16.516;2022-07-01T07:35:59;27.40;99.90
35894;DHT22;21994;48.204;16.516;2022-07-01T07:38:25;27.70;99.90
35894;DHT22;21994;48.204;16.516;2022-07-01T07:40:51;27.50;98.80
35894;DHT22;21994;48.204;16.516;2022-07-01T07:43:17;27.40;99.40
35894;DHT22;21994;48.204;16.516;2022-07-01T07:45:43;27.50;99.20
35894;DHT22;21994;48.204;16.516;2022-07-01T07:48:08;27.80;99.30
35894;DHT22;21994;48.204;16.516;2022-07-01T07:50:35;27.80;98.80
35894;DHT22;21994;48.204;16.516;2022-07-01T07:53:02;27.90;98.40
35894;DHT22;21994;48.204;16.516;2022-07-01T07:55:28;27.80;98.50
35894;DHT22;21994;48.204;16.516;2022-07-01T07:57:54;27.90;98.80
35894;DHT22;21994;48.204;16.516;2022-07-01T08:00:20;28.10;98.60
35894;DHT22;21994;48.204;16.516;2022-07-01T08:02:46;28.20;98.30
35894;DHT22;21994;48.204;16.516;2022-07-01T08:05:12;28.40;99.30
35894;DHT22;21994;48.204;16.516;2022-07-01T08:07:41;28.50;97.90
35894;DHT22;21994;48.204;16.516;2022-07-01T08:10:11;28.50;97.60
35894;DHT22;21994;48.204;16.516;2022-07-01T08:12:38;28.60;98.00
35894;DHT22;21994;48.204;16.516;2022-07-01T08:15:05;28.80;97.70
35894;DHT22;21994;48.204;16.516;2022-07-01T08:17:32;29.00;98.50
35894;DHT22;21994;48.204;16.516;2022-07-01T08:19:58;29.30;97.10
35894;DHT22;21994;48.204;16.516;2022-07-01T08:22:24;29.60;97.60
35894;DHT22;21994;48.204;16.516;2022-07-01T08:24:50;29.40;96.90
35894;DHT22;21994;48.204;16.516;2022-07-01T08:27:16;29.40;97.20
35894;DHT22;21994;48.204;16.516;2022-07-01T08:29:42;29.60;97.40
35894;DHT22;21994;48.204;16.516;2022-07-01T08:32:08;29.90;97.10
35894;DHT22;21994;48.204;16.516;2022-07-01T08:34:34;29.90;97.00
35894;DHT22;21994;48.204;16.516;2022-07-01T08:37:02;30.10;95.60
35894;DHT22;21994;48.204;16.516;2022-07-01T08:39:29;29.70;95.60
35894;DHT22;21994;48.204;16.516;2022-07-01T08:41:56;29.40;96.70
35894;DHT22;21994;48.204;16.516;2022-07-01T08:44:22;29.50;95.90
35894;DHT22;21994;48.204;16.516;2022-07-01T08:46:48;29.50;96.30
35894;DHT22;21994;48.204;16.516;2022-07-01T08:49:15;29.70;95.40
35894;DHT22;21994;48.204;16.516;2022-07-01T08:51:42;29.60;96.20
35894;DHT22;21994;48.204;16.516;2022-07-01T08:54:08;29.80;95.60
35894;DHT22;21994;48.204;16.516;2022-07-01T08:56:34;29.80;95.50
35894;DHT22;21994;48.204;16.516;2022-07-01T08:59:21;29.90;95.20
35894;DHT22;21994;48.204;16.516;2022-07-01T09:02:00;30.30;95.90
35894;DHT22;21994;48.204;16.516;2022-07-01T09:04:29;30.20;95.20
35894;DHT22;21994;48.204;16.516;2022-07-01T09:07:08;30.10;95.10
35894;DHT22;21994;48.204;16.516;2022-07-01T09:09:36;30.60;94.80
35894;DHT22;21994;48.204;16.516;2022-07-01T09:12:04;30.80;94.10
35894;DHT22;21994;48.204;16.516;2022-07-01T09:14:32;30.90;93.70
35894;DHT22;21994;48.204;16.516;2022-07-01T09:17:00;31.40;92.90
35894;DHT22;21994;48.204;16.516;2022-07-01T09:19:29;31.50;92.90
35894;DHT22;21994;48.204;16.516;2022-07-01T09:21:59;31.90;92.80
35894;DHT22;21994;48.204;16.516;2022-07-01T09:24:30;31.60;92.70
35894;DHT22;21994;48.204;16.516;2022-07-01T09:27:01;31.50;92.30
35894;DHT22;21994;48.204;16.516;2022-07-01T09:29:38;31.80;92.50
35894;DHT22;21994;48.204;16.516;2022-07-01T09:32:10;32.00;91.50
35894;DHT22;21994;48.204;16.516;2022-07-01T09:34:42;32.50;91.20
35894;DHT22;21994;48.204;16.516;2022-07-01T09:37:20;32.30;91.20
35894;DHT22;21994;48.204;16.516;2022-07-01T09:39:51;32.20;90.50
35894;DHT22;21994;48.204;16.516;2022-07-01T09:42:22;32.70;91.00
35894;DHT22;21994;48.204;16.516;2022-07-01T09:44:56;33.00;91.50
35894;DHT22;21994;48.204;16.516;2022-07-01T09:47:34;32.70;90.60
35894;DHT22;21994;48.204;16.516;2022-07-01T09:50:02;32.80;89.90
35894;DHT22;21994;48.204;16.516;2022-07-01T09:52:29;33.00;89.90
35894;DHT22;21994;48.204;16.516;2022-07-01T09:54:56;33.00;90.40
35894;DHT22;21994;48.204;16.516;2022-07-01T09:57:22;33.20;89.10
35894;DHT22;21994;48.204;16.516;2022-07-01T09:59:49;33.70;87.20
35894;DHT22;21994;48.204;16.516;2022-07-01T10:02:21;33.90;86.20
35894;DHT22;21994;48.204;16.516;2022-07-01T10:05:02;33.80;88.70
35894;DHT22;21994;48.204;16.516;2022-07-01T10:10:44;34.90;85.80
35894;DHT22;21994;48.204;16.516;2022-07-01T10:13:23;35.00;83.60
35894;DHT22;21994;48.204;16.516;2022-07-01T10:15:51;34.70;85.10
35894;DHT22;21994;48.204;16.516;2022-07-01T10:18:25;34.30;84.00
35894;DHT22;21994;48.204;16.516;2022-07-01T10:20:54;35.10;84.10
35894;DHT22;21994;48.204;16.516;2022-07-01T10:23:23;35.10;84.00
35894;DHT22;21994;48.204;16.516;2022-07-01T10:26:02;35.40;83.30
35894;DHT22;21994;48.204;16.516;2022-07-01T10:31:10;35.70;80.00
35894;DHT22;21994;48.204;16.516;2022-07-01T10:41:54;36.20;78.30
35894;DHT22;21994;48.204;16.516;2022-07-01T10:44:22;36.30;78.00
35894;DHT22;21994;48.204;16.516;2022-07-01T10:46:58;36.00;79.10
35894;DHT22;21994;48.204;16.516;2022-07-01T10:59:47;36.30;77.00
35894;DHT22;21994;48.204;16.516;2022-07-01T11:02:30;36.30;76.70
35894;DHT22;21994;48.204;16.516;2022-07-01T11:05:02;36.50;77.00
35894;DHT22;21994;48.204;16.516;2022-07-01T11:07:32;36.20;76.90
35894;DHT22;21994;48.204;16.516;2022-07-01T11:10:00;36.40;74.80
35894;DHT22;21994;48.204;16.516;2022-07-01T11:12:28;36.60;75.50
35894;DHT22;21994;48.204;16.516;2022-07-01T11:14:56;36.50;74.70
35894;DHT22;21994;48.204;16.516;2022-07-01T11:17:25;36.60;75.70
35894;DHT22;21994;48.204;16.516;2022-07-01T11:19:54;36.20;76.40
35894;DHT22;21994;48.204;16.516;2022-07-01T11:22:25;36.40;73.90
35894;DHT22;21994;48.204;16.516;2022-07-01T11:24:54;35.80;76.70
35894;DHT22;21994;48.204;16.516;2022-07-01T11:27:21;35.40;75.80
35894;DHT22;21994;48.204;16.516;2022-07-01T11:29:52;35.60;76.00
35894;DHT22;21994;48.204;16.516;2022-07-01T11:32:31;35.30;78.40
35894;DHT22;21994;48.204;16.516;2022-07-01T11:35:00;34.30;79.60
35894;DHT22;21994;48.204;16.516;2022-07-01T11:37:29;34.30;78.40
35894;DHT22;21994;48.204;16.516;2022-07-01T11:40:17;34.30;77.60
35894;DHT22;21994;48.204;16.516;2022-07-01T11:42:44;34.00;77.90
35894;DHT22;21994;48.204;16.516;2022-07-01T11:45:25;33.90;76.90
35894;DHT22;21994;48.204;16.516;2022-07-01T11:47:52;33.80;77.90
35894;DHT22;21994;48.204;16.516;2022-07-01T11:50:19;33.50;79.10
35894;DHT22;21994;48.204;16.516;2022-07-01T11:52:45;33.60;79.70
35894;DHT22;21994;48.204;16.516;2022-07-01T11:55:12;33.50;81.20
35894;DHT22;21994;48.204;16.516;2022-07-01T11:57:38;33.70;78.40
35894;DHT22;21994;48.204;16.516;2022-07-01T12:00:11;33.80;79.80
35894;DHT22;21994;48.204;16.516;2022-07-01T12:02:38;33.90;80.00
35894;DHT22;21994;48.204;16.516;2022-07-01T12:05:05;34.10;78.60
35894;DHT22;21994;48.204;16.516;2022-07-01T12:07:32;34.00;80.10
35894;DHT22;21994;48.204;16.516;2022-07-01T12:09:58;34.40;80.00
35894;DHT22;21994;48.204;16.516;2022-07-01T12:12:27;34.40;79.90
35894;DHT22;21994;48.204;16.516;2022-07-01T12:14:58;34.60;76.50
35894;DHT22;21994;48.204;16.516;2022-07-01T12:17:26;34.70;77.50
35894;DHT22;21994;48.204;16.516;2022-07-01T12:19:54;34.80;77.00
35894;DHT22;21994;48.204;16.516;2022-07-01T12:22:25;35.10;78.30
35894;DHT22;21994;48.204;16.516;2022-07-01T12:25:04;34.80;77.50
35894;DHT22;21994;48.204;16.516;2022-07-01T12:27:34;34.50;80.90
35894;DHT22;21994;48.204;16.516;2022-07-01T12:30:01;34.70;80.60
35894;DHT22;21994;48.204;16.516;2022-07-01T12:32:29;34.70;76.70
35894;DHT22;21994;48.204;16.516;2022-07-01T12:34:57;35.10;77.30
35894;DHT22;21994;48.204;16.516;2022-07-01T12:37:30;35.10;77.00
35894;DHT22;21994;48.204;16.516;2022-07-01T12:40:19;35.50;75.20
35894;DHT22;21994;48.204;16.516;2022-07-01T12:42:47;35.30;73.90
35894;DHT22;21994;48.204;16.516;2022-07-01T12:45:15;35.10;77.90
35894;DHT22;21994;48.204;16.516;2022-07-01T12:50:17;35.20;74.70
35894;DHT22;21994;48.204;16.516;2022-07-01T12:53:08;34.70;77.70
35894;DHT22;21994;48.204;16.516;2022-07-01T12:55:46;34.10;78.00
35894;DHT22;21994;48.204;16.516;2022-07-01T12:58:19;33.70;78.70
35894;DHT22;21994;48.204;16.516;2022-07-01T13:00:54;33.70;78.90
35894;DHT22;21994;48.204;16.516;2022-07-01T13:03:23;33.20;78.90
35894;DHT22;21994;48.204;16.516;2022-07-01T13:05:51;32.90;78.80
35894;DHT22;21994;48.204;16.516;2022-07-01T13:08:18;33.10;79.80
35894;DHT22;21994;48.204;16.516;2022-07-01T13:10:46;32.80;82.60
35894;DHT22;21994;48.204;16.516;2022-07-01T13:13:14;33.00;82.60
35894;DHT22;21994;48.204;16.516;2022-07-01T13:15:42;33.20;80.60
35894;DHT22;21994;48.204;16.516;2022-07-01T13:18:10;33.80;82.90
35894;DHT22;21994;48.204;16.516;2022-07-01T13:20:36;33.80;77.00
35894;DHT22;21994;48.204;16.516;2022-07-01T13:23:04;33.80;78.60
35894;DHT22;21994;48.204;16.516;2022-07-01T13:25:30;34.00;78.10
35894;DHT22;21994;48.204;16.516;2022-07-01T13:27:57;33.80;79.80
35894;DHT22;21994;48.204;16.516;2022-07-01T13:30:24;33.60;78.70
35894;DHT22;21994;48.204;16.516;2022-07-01T13:32:50;33.40;78.30
35894;DHT22;21994;48.204;16.516;2022-07-01T13:35:19;32.90;80.20
35894;DHT22;21994;48.204;16.516;2022-07-01T13:37:47;33.00;80.60
35894;DHT22;21994;48.204;16.516;2022-07-01T13:40:13;32.80;80.40
35894;DHT22;21994;48.204;16.516;2022-07-01T13:42:40;32.90;82.90
35894;DHT22;21994;48.204;16.516;2022-07-01T13:45:06;32.90;83.50
35894;DHT22;21994;48.204;16.516;2022-07-01T13:47:33;32.60;80.20
35894;DHT22;21994;48.204;16.516;2022-07-01T13:49:59;32.30;81.60
35894;DHT22;21994;48.204;16.516;2022-07-01T13:52:25;32.00;82.40
35894;DHT22;21994;48.204;16.516;2022-07-01T13:54:54;32.10;85.60
35894;DHT22;21994;48.204;16.516;2022-07-01T13:57:23;32.30;83.50
35894;DHT22;21994;48.204;16.516;2022-07-01T13:59:49;32.30;82.60
35894;DHT22;21994;48.204;16.516;2022-07-01T14:02:15;32.30;86.20
35894;DHT22;21994;48.204;16.516;2022-07-01T14:04:44;32.20;82.90
35894;DHT22;21994;48.204;16.516;2022-07-01T14:07:11;31.90;83.20
35894;DHT22;21994;48.204;16.516;2022-07-01T14:09:37;32.00;82.30
35894;DHT22;21994;48.204;16.516;2022-07-01T14:12:04;31.90;84.00
35894;DHT22;21994;48.204;16.516;2022-07-01T14:14:30;31.90;81.90
35894;DHT22;21994;48.204;16.516;2022-07-01T14:16:56;32.10;83.00
35894;DHT22;21994;48.204;16.516;2022-07-01T14:19:22;31.80;83.10
35894;DHT22;21994;48.204;16.516;2022-07-01T14:21:48;31.80;82.50
35894;DHT22;21994;48.204;16.516;2022-07-01T14:24:14;31.60;81.50
35894;DHT22;21994;48.204;16.516;2022-07-01T14:26:39;31.80;82.30
35894;DHT22;21994;48.204;16.516;2022-07-01T14:29:05;31.60;83.40
35894;DHT22;21994;48.204;16.516;2022-07-01T14:31:31;31.70;85.10
35894;DHT22;21994;48.204;16.516;2022-07-01T14:34:00;32.10;85.10
35894;DHT22;21994;48.204;16.516;2022-07-01T14:36:26;32.10;83.60
35894;DHT22;21994;48.204;16.516;2022-07-01T14:38:52;32.60;81.00
35894;DHT22;21994;48.204;16.516;2022-07-01T14:41:18;32.80;81.00
35894;DHT22;21994;48.204;16.516;2022-07-01T14:43:47;32.70;80.80
35894;DHT22;21994;48.204;16.516;2022-07-01T14:46:13;32.60;81.70
35894;DHT22;21994;48.204;16.516;2022-07-01T14:48:40;33.00;80.50
35894;DHT22;21994;48.204;16.516;2022-07-01T14:51:06;33.20;80.50
35894;DHT22;21994;48.204;16.516;2022-07-01T14:53:33;33.20;79.30
35894;DHT22;21994;48.204;16.516;2022-07-01T14:55:59;33.20;81.90
35894;DHT22;21994;48.204;16.516;2022-07-01T14:58:24;33.70;79.20
35894;DHT22;21994;48.204;16.516;2022-07-01T15:00:51;34.10;77.90
35894;DHT22;21994;48.204;16.516;2022-07-01T15:03:17;33.80;78.30
35894;DHT22;21994;48.204;16.516;2022-07-01T15:05:43;33.80;77.50
35894;DHT22;21994;48.204;16.516;2022-07-01T15:08:09;34.00;80.40
35894;DHT22;21994;48.204;16.516;2022-07-01T15:10:34;34.10;78.90
35894;DHT22;21994;48.204;16.516;2022-07-01T15:13:00;34.40;77.40
35894;DHT22;21994;48.204;16.516;2022-07-01T15:15:26;34.00;79.40
35894;DHT22;21994;48.204;16.516;2022-07-01T15:17:52;34.20;77.60
35894;DHT22;21994;48.204;16.516;2022-07-01T15:20:18;34.10;77.90
35894;DHT22;21994;48.204;16.516;2022-07-01T15:22:44;34.20;78.20
35894;DHT22;21994;48.204;16.516;2022-07-01T15:25:10;34.40;78.00
35894;DHT22;21994;48.204;16.516;2022-07-01T15:27:36;34.00;77.90
35894;DHT22;21994;48.204;16.516;2022-07-01T15:30:03;33.60;80.10
35894;DHT22;21994;48.204;16.516;2022-07-01T15:32:32;33.50;80.30
35894;DHT22;21994;48.204;16.516;2022-07-01T15:34:58;34.00;81.10
35894;DHT22;21994;48.204;16.516;2022-07-01T15:37:24;34.40;80.70
35894;DHT22;21994;48.204;16.516;2022-07-01T15:39:50;34.20;77.90
35894;DHT22;21994;48.204;16.516;2022-07-01T15:42:16;34.00;79.60
35894;DHT22;21994;48.204;16.516;2022-07-01T15:44:42;34.00;80.70
35894;DHT22;21994;48.204;16.516;2022-07-01T15:47:08;33.90;81.00